METAR Data
IDs: Format: Raw Decoded Include TAF

Data at: 0122 UTC 20 Jul 2019

METAR for:KDSM (Des Moines Intl, IA, US)
Text:KDSM 200054Z 20011KT 10SM CLR 33/24 A2970 RMK AO2 SLP047 T03330244
Temperature: 33.3°C ( 92°F)
Dewpoint: 24.4°C ( 76°F) [RH = 60%]
Pressure (altimeter):29.70 inches Hg (1005.8 mb) [Sea level pressure: 1004.7 mb]
Winds:from the SSW (200 degrees) at 13 MPH (11 knots; 5.7 m/s)
Visibility:10 or more sm (16+ km)
Ceiling:at least 12,000 feet AGL
Clouds:sky clear below 12,000 feet AGL